createdAt,value
2023-06-19T00:01:41.768Z,22.40
2023-06-19T00:04:08.926Z,22.40
2023-06-19T00:06:35.821Z,22.30
2023-06-19T00:09:02.934Z,22.30
2023-06-19T00:11:30.243Z,22.30
2023-06-19T00:13:57.074Z,22.30
2023-06-19T00:16:26.230Z,22.30
2023-06-19T00:18:56.728Z,22.20
2023-06-19T00:21:27.016Z,22.20
2023-06-19T00:23:54.720Z,22.20
2023-06-19T00:26:23.746Z,22.20
2023-06-19T00:28:50.658Z,22.10
2023-06-19T00:31:17.637Z,22.10
2023-06-19T00:33:45.102Z,22.10
2023-06-19T00:36:12.611Z,22.10
2023-06-19T00:38:40.102Z,22.00
2023-06-19T00:41:07.209Z,22.00
2023-06-19T00:43:34.517Z,22.00
2023-06-19T00:46:02.263Z,22.00
2023-06-19T00:48:29.798Z,22.00
2023-06-19T00:51:00.705Z,22.00
2023-06-19T00:53:27.887Z,22.00
2023-06-19T00:55:56.049Z,21.90
2023-06-19T00:58:24.550Z,21.90
2023-06-19T01:01:03.914Z,21.90
2023-06-19T01:03:38.387Z,21.90
2023-06-19T01:06:09.355Z,21.90
2023-06-19T01:08:54.995Z,21.80
2023-06-19T01:11:29.107Z,21.80
2023-06-19T01:14:09.624Z,21.80
2023-06-19T01:16:36.902Z,21.80
2023-06-19T01:19:04.949Z,21.80
2023-06-19T01:21:31.952Z,21.80
2023-06-19T01:23:58.883Z,21.80
2023-06-19T01:26:29.307Z,21.70
2023-06-19T01:28:57.847Z,21.70
2023-06-19T01:31:29.780Z,21.70
2023-06-19T01:33:57.484Z,21.70
2023-06-19T01:36:24.821Z,21.70
2023-06-19T01:38:53.669Z,21.70
2023-06-19T01:41:20.873Z,21.70
2023-06-19T01:43:48.754Z,21.70
2023-06-19T01:46:15.816Z,21.70
2023-06-19T01:48:42.725Z,21.70
2023-06-19T01:51:09.569Z,21.70
2023-06-19T01:53:39.552Z,21.70
2023-06-19T01:56:06.458Z,21.70
2023-06-19T01:58:33.329Z,21.70
2023-06-19T02:01:01.916Z,21.80
2023-06-19T02:03:28.947Z,21.70
2023-06-19T02:05:55.859Z,21.70
2023-06-19T02:08:22.678Z,21.80
2023-06-19T02:10:49.555Z,21.70
2023-06-19T02:13:16.399Z,21.80
2023-06-19T02:15:43.286Z,21.80
2023-06-19T02:18:10.169Z,21.70
2023-06-19T02:20:37.108Z,21.70
2023-06-19T02:23:03.960Z,21.70
2023-06-19T02:25:30.828Z,21.70
2023-06-19T02:27:58.053Z,21.70
2023-06-19T02:30:25.224Z,21.60
2023-06-19T02:32:52.311Z,21.60
2023-06-19T02:35:20.165Z,21.60
2023-06-19T02:37:48.214Z,21.50
2023-06-19T02:40:15.557Z,21.50
2023-06-19T02:42:42.572Z,21.50
2023-06-19T02:45:09.597Z,21.50
2023-06-19T02:47:36.526Z,21.40
2023-06-19T02:50:04.789Z,21.40
2023-06-19T02:52:32.397Z,21.40
2023-06-19T02:55:00.348Z,21.40
2023-06-19T02:57:27.309Z,21.40
2023-06-19T02:59:54.175Z,21.30
2023-06-19T03:02:21.279Z,21.40
2023-06-19T03:04:48.425Z,21.40
2023-06-19T03:07:15.263Z,21.30
2023-06-19T03:09:42.502Z,21.40
2023-06-19T03:12:09.986Z,21.30
2023-06-19T03:14:37.618Z,21.40
2023-06-19T03:17:04.837Z,21.30
2023-06-19T03:19:32.501Z,21.30
2023-06-19T03:21:59.788Z,21.30
2023-06-19T03:24:27.580Z,21.30
2023-06-19T03:27:00.957Z,21.30
2023-06-19T03:29:28.070Z,21.30
2023-06-19T03:32:05.189Z,21.30
2023-06-19T03:34:34.261Z,21.30
2023-06-19T03:37:05.062Z,21.30
2023-06-19T03:39:32.517Z,21.30
2023-06-19T03:42:06.043Z,21.30
2023-06-19T03:44:33.411Z,21.30
2023-06-19T03:47:00.430Z,21.30
2023-06-19T03:49:27.917Z,21.30
2023-06-19T03:51:55.589Z,21.40
2023-06-19T03:54:22.652Z,21.40
2023-06-19T03:56:49.694Z,21.40
2023-06-19T03:59:17.884Z,21.40
2023-06-19T04:01:45.014Z,21.40
2023-06-19T04:04:11.988Z,21.40
2023-06-19T04:06:38.887Z,21.50
2023-06-19T04:09:07.220Z,21.50
2023-06-19T04:11:35.058Z,21.50
2023-06-19T04:14:02.915Z,21.50
2023-06-19T04:16:30.621Z,21.60
2023-06-19T04:18:57.806Z,21.70
2023-06-19T04:21:25.706Z,21.70
2023-06-19T04:23:52.738Z,21.80
2023-06-19T04:26:20.165Z,21.90
2023-06-19T04:28:47.096Z,22.00
2023-06-19T04:31:19.069Z,22.10
2023-06-19T04:33:47.005Z,22.20
2023-06-19T04:36:14.894Z,22.20
2023-06-19T04:38:41.914Z,22.40
2023-06-19T04:41:08.882Z,22.50
2023-06-19T04:43:35.856Z,22.60
2023-06-19T04:46:05.079Z,22.70
2023-06-19T04:48:32.242Z,22.80
2023-06-19T04:51:02.257Z,22.90
2023-06-19T04:53:29.156Z,23.00
2023-06-19T04:55:56.382Z,23.10
2023-06-19T04:58:23.416Z,23.20
2023-06-19T05:00:53.616Z,23.30
2023-06-19T05:03:20.729Z,23.40
2023-06-19T05:05:48.146Z,23.50
2023-06-19T05:08:15.111Z,23.60
2023-06-19T05:10:44.182Z,23.80
2023-06-19T05:13:12.464Z,24.00
2023-06-19T05:15:39.385Z,24.10
2023-06-19T05:18:06.275Z,24.10
2023-06-19T05:20:33.129Z,24.10
2023-06-19T05:22:59.957Z,24.10
2023-06-19T05:25:26.871Z,24.20
2023-06-19T05:27:53.741Z,24.30
2023-06-19T05:30:20.567Z,24.40
2023-06-19T05:32:47.448Z,24.60
2023-06-19T05:35:16.594Z,24.80
2023-06-19T05:37:46.786Z,25.20
2023-06-19T05:40:13.813Z,25.60
2023-06-19T05:42:41.156Z,25.90
2023-06-19T05:45:08.374Z,26.20
2023-06-19T05:47:35.445Z,26.40
2023-06-19T05:50:02.457Z,26.60
2023-06-19T05:52:29.339Z,26.90
2023-06-19T05:54:56.248Z,27.00
2023-06-19T05:57:23.109Z,27.10
2023-06-19T05:59:50.318Z,27.00
2023-06-19T06:02:18.059Z,27.00
2023-06-19T06:04:44.931Z,27.00
2023-06-19T06:07:12.280Z,27.20
2023-06-19T06:09:39.102Z,27.50
2023-06-19T06:12:06.248Z,27.80
2023-06-19T06:14:33.134Z,28.20
2023-06-19T06:17:00.132Z,28.40
2023-06-19T06:19:27.221Z,28.70
2023-06-19T06:21:54.129Z,29.00
2023-06-19T06:24:21.148Z,29.40
2023-06-19T06:26:48.098Z,29.70
2023-06-19T06:29:15.031Z,29.90
2023-06-19T06:31:42.654Z,30.10
2023-06-19T06:34:09.965Z,30.20
2023-06-19T06:36:39.004Z,30.40
2023-06-19T06:39:12.673Z,30.60
2023-06-19T06:41:39.985Z,30.60
2023-06-19T06:44:06.976Z,30.20
2023-06-19T06:46:33.874Z,29.80
2023-06-19T06:49:00.745Z,29.10
2023-06-19T06:51:27.764Z,28.60
2023-06-19T06:53:54.639Z,28.30
2023-06-19T06:56:21.522Z,28.20
2023-06-19T06:58:48.499Z,28.10
2023-06-19T07:01:15.438Z,28.00
2023-06-19T07:03:42.403Z,28.00
2023-06-19T07:06:09.287Z,28.10
2023-06-19T07:08:36.130Z,28.10
2023-06-19T07:11:03.034Z,28.00
2023-06-19T07:13:29.916Z,28.00
2023-06-19T07:15:56.899Z,28.00
2023-06-19T07:18:23.779Z,28.00
2023-06-19T07:20:50.800Z,28.00
2023-06-19T07:23:17.964Z,28.20
2023-06-19T07:25:46.404Z,28.20
2023-06-19T07:28:13.240Z,28.30
2023-06-19T07:30:40.526Z,28.30
2023-06-19T07:33:07.667Z,28.30
2023-06-19T07:35:34.523Z,28.30
2023-06-19T07:38:01.422Z,28.30
2023-06-19T07:40:28.519Z,28.30
2023-06-19T07:42:55.510Z,28.20
2023-06-19T07:45:24.567Z,28.00
2023-06-19T07:47:55.118Z,27.80
2023-06-19T07:50:23.040Z,27.70
2023-06-19T07:52:51.693Z,27.60
2023-06-19T07:55:18.562Z,27.50
2023-06-19T07:57:45.381Z,27.50
2023-06-19T08:00:13.873Z,27.50
2023-06-19T08:02:41.635Z,27.40
2023-06-19T08:05:09.541Z,27.30
2023-06-19T08:07:36.546Z,27.40
2023-06-19T08:10:13.994Z,27.40
2023-06-19T08:12:42.684Z,27.50
2023-06-19T08:15:10.076Z,27.50
2023-06-19T08:17:37.142Z,27.40
2023-06-19T08:20:06.392Z,27.50
2023-06-19T08:22:33.332Z,27.60
2023-06-19T08:25:00.213Z,27.60
2023-06-19T08:27:27.071Z,27.60
2023-06-19T08:29:54.034Z,27.50
2023-06-19T08:32:21.081Z,27.70
2023-06-19T08:34:47.887Z,27.70
2023-06-19T08:37:14.768Z,27.60
2023-06-19T08:39:41.698Z,27.60
2023-06-19T08:42:11.613Z,27.70
2023-06-19T08:44:39.668Z,27.60
2023-06-19T08:47:06.996Z,27.60
2023-06-19T08:49:34.983Z,27.80
2023-06-19T08:52:02.239Z,27.70
2023-06-19T08:54:29.110Z,27.90
2023-06-19T08:56:56.005Z,28.00
2023-06-19T08:59:23.022Z,28.00
2023-06-19T09:01:53.923Z,27.80
2023-06-19T09:04:32.135Z,27.70
2023-06-19T09:07:00.655Z,27.60
2023-06-19T09:09:29.350Z,27.60
2023-06-19T09:12:00.458Z,27.70
2023-06-19T09:14:33.632Z,27.80
2023-06-19T09:17:00.813Z,27.90
2023-06-19T09:19:27.708Z,28.00
2023-06-19T09:21:54.556Z,28.00
2023-06-19T09:24:21.514Z,27.90
2023-06-19T09:26:48.628Z,27.80
2023-06-19T09:29:21.310Z,27.50
2023-06-19T09:31:48.710Z,27.50
2023-06-19T09:34:15.606Z,27.60
2023-06-19T09:36:43.131Z,27.70
2023-06-19T09:39:10.985Z,27.70
2023-06-19T09:41:38.156Z,27.90
2023-06-19T09:44:13.252Z,28.10
2023-06-19T09:46:42.158Z,28.10
2023-06-19T09:49:09.738Z,28.20
2023-06-19T09:51:42.339Z,28.40
2023-06-19T09:54:10.601Z,28.40
2023-06-19T09:56:39.187Z,28.30
2023-06-19T09:59:06.389Z,28.40
2023-06-19T10:01:33.961Z,28.60
2023-06-19T10:04:12.368Z,28.80
2023-06-19T10:06:46.289Z,29.10
2023-06-19T10:09:15.260Z,29.40
2023-06-19T10:11:49.491Z,29.70
2023-06-19T10:14:19.424Z,29.80
2023-06-19T10:16:46.536Z,29.90
2023-06-19T10:19:17.310Z,30.10
2023-06-19T10:21:51.389Z,30.20
2023-06-19T10:24:20.719Z,30.40
2023-06-19T10:26:58.863Z,30.30
2023-06-19T10:29:26.831Z,30.10
2023-06-19T10:31:54.288Z,30.20
2023-06-19T10:34:21.224Z,30.40
2023-06-19T10:36:48.083Z,30.60
2023-06-19T10:39:15.196Z,30.80
2023-06-19T10:41:42.256Z,31.00
2023-06-19T10:44:15.865Z,31.10
2023-06-19T10:46:42.799Z,30.90
2023-06-19T10:49:11.469Z,31.10
2023-06-19T10:51:39.562Z,31.40
2023-06-19T10:54:06.606Z,31.70
2023-06-19T10:56:33.667Z,32.40
2023-06-19T10:59:05.464Z,33.20
2023-06-19T11:01:39.518Z,33.80
2023-06-19T11:04:10.391Z,34.20
2023-06-19T11:06:38.017Z,33.90
2023-06-19T11:09:06.392Z,33.30
2023-06-19T11:11:43.454Z,33.10
2023-06-19T11:14:10.998Z,33.00
2023-06-19T11:16:44.713Z,32.60
2023-06-19T11:19:16.166Z,32.50
2023-06-19T11:21:46.052Z,32.10
2023-06-19T11:24:13.980Z,31.50
2023-06-19T11:26:44.994Z,31.20
2023-06-19T11:29:16.397Z,30.90
2023-06-19T11:31:43.359Z,30.60
2023-06-19T11:34:10.324Z,30.40
2023-06-19T11:36:40.440Z,30.30
2023-06-19T11:39:12.460Z,30.40
2023-06-19T11:41:39.469Z,30.70
2023-06-19T11:44:07.386Z,31.00
2023-06-19T11:46:35.260Z,30.90
2023-06-19T11:49:33.494Z,30.90
2023-06-19T11:52:00.390Z,31.10
2023-06-19T11:54:27.281Z,31.30
2023-06-19T11:56:54.157Z,31.50
2023-06-19T11:59:21.183Z,31.70
2023-06-19T12:01:48.552Z,31.70
2023-06-19T12:04:18.433Z,31.90
2023-06-19T12:06:45.556Z,32.00
2023-06-19T12:09:12.780Z,31.80
2023-06-19T12:11:39.617Z,31.80
2023-06-19T12:14:06.512Z,31.40
2023-06-19T12:16:33.398Z,31.20
2023-06-19T12:19:00.469Z,30.90
2023-06-19T12:21:37.318Z,30.90
2023-06-19T12:24:06.205Z,31.00
2023-06-19T12:26:37.568Z,31.10
2023-06-19T12:29:05.094Z,31.30
2023-06-19T12:31:37.145Z,31.40
2023-06-19T12:34:13.999Z,31.50
2023-06-19T12:36:47.958Z,31.70
2023-06-19T12:39:15.933Z,31.70
2023-06-19T12:41:42.816Z,31.80
2023-06-19T12:44:09.662Z,31.70
2023-06-19T12:46:36.665Z,31.70
2023-06-19T12:49:03.716Z,31.80
2023-06-19T12:51:30.622Z,32.00
2023-06-19T12:53:57.443Z,31.90
2023-06-19T12:56:24.393Z,31.80
2023-06-19T12:58:51.217Z,31.70
2023-06-19T13:01:18.621Z,31.60
2023-06-19T13:03:45.968Z,31.50
2023-06-19T13:06:13.024Z,31.50
2023-06-19T13:08:40.022Z,31.50
2023-06-19T13:11:06.920Z,31.70
2023-06-19T13:13:33.798Z,31.70
2023-06-19T13:16:00.829Z,31.60
2023-06-19T13:18:27.846Z,31.50
2023-06-19T13:20:54.779Z,31.40
2023-06-19T13:23:21.690Z,31.00
2023-06-19T13:25:48.644Z,30.80
2023-06-19T13:28:15.574Z,30.60
2023-06-19T13:30:42.468Z,30.60
2023-06-19T13:33:10.022Z,30.70
2023-06-19T13:35:37.021Z,30.80
2023-06-19T13:38:03.916Z,31.00
2023-06-19T13:40:31.229Z,30.90
2023-06-19T13:42:58.387Z,30.90
2023-06-19T13:45:25.280Z,30.90
2023-06-19T13:47:52.304Z,31.00
2023-06-19T13:50:19.771Z,31.20
2023-06-19T13:52:47.226Z,31.40
2023-06-19T13:55:15.599Z,31.70
2023-06-19T13:57:45.638Z,31.80
2023-06-19T14:00:13.023Z,31.90
2023-06-19T14:02:40.153Z,32.00
2023-06-19T14:05:07.864Z,32.00
2023-06-19T14:07:36.090Z,32.00
2023-06-19T14:10:04.003Z,32.10
2023-06-19T14:12:31.545Z,32.00
2023-06-19T14:14:58.460Z,32.00
2023-06-19T14:17:25.470Z,32.00
2023-06-19T14:19:52.397Z,32.00
2023-06-19T14:22:19.562Z,32.00
2023-06-19T14:24:46.542Z,31.80
2023-06-19T14:27:13.752Z,31.90
2023-06-19T14:29:41.537Z,31.90
2023-06-19T14:32:08.392Z,31.80
2023-06-19T14:34:35.229Z,32.00
2023-06-19T14:37:02.092Z,32.10
2023-06-19T14:39:28.940Z,32.10
2023-06-19T14:41:56.611Z,32.10
2023-06-19T14:44:23.487Z,32.20
2023-06-19T14:46:50.332Z,32.20
2023-06-19T14:49:17.194Z,32.00
2023-06-19T14:51:44.323Z,32.00
2023-06-19T14:54:11.304Z,32.00
2023-06-19T14:56:38.184Z,32.10
2023-06-19T14:59:05.084Z,32.20
2023-06-19T15:01:31.972Z,32.10
2023-06-19T15:03:59.243Z,32.10
2023-06-19T15:06:26.440Z,32.20
2023-06-19T15:08:53.392Z,32.40
2023-06-19T15:11:20.287Z,32.40
2023-06-19T15:13:47.162Z,32.40
2023-06-19T15:16:14.210Z,32.40
2023-06-19T15:18:41.550Z,32.30
2023-06-19T15:21:08.555Z,32.30
2023-06-19T15:23:35.858Z,32.20
2023-06-19T15:26:03.101Z,32.00
2023-06-19T15:28:29.935Z,31.90
2023-06-19T15:30:56.782Z,31.90
2023-06-19T15:33:23.720Z,31.90
2023-06-19T15:35:50.868Z,32.00
2023-06-19T15:38:17.820Z,32.00
2023-06-19T15:40:44.775Z,32.10
2023-06-19T15:43:11.731Z,32.10
2023-06-19T15:45:38.645Z,32.20
2023-06-19T15:48:06.350Z,32.10
2023-06-19T15:50:34.247Z,31.90
2023-06-19T15:53:01.236Z,31.90
2023-06-19T15:55:28.769Z,31.90
2023-06-19T15:57:55.757Z,32.00
2023-06-19T16:00:22.856Z,32.00
2023-06-19T16:02:50.193Z,31.90
2023-06-19T16:05:17.923Z,31.70
2023-06-19T16:07:44.919Z,31.70
2023-06-19T16:10:11.849Z,31.80
2023-06-19T16:12:38.713Z,31.90
2023-06-19T16:15:05.933Z,32.00
2023-06-19T16:17:32.980Z,32.00
2023-06-19T16:20:00.195Z,31.90
2023-06-19T16:22:27.181Z,31.70
2023-06-19T16:24:54.065Z,31.80
2023-06-19T16:27:20.888Z,31.70
2023-06-19T16:29:47.885Z,31.80
2023-06-19T16:32:14.809Z,31.70
2023-06-19T16:34:42.024Z,31.80
2023-06-19T16:37:09.149Z,31.70
2023-06-19T16:39:36.099Z,31.70
2023-06-19T16:42:03.167Z,31.70
2023-06-19T16:44:30.083Z,31.70
2023-06-19T16:46:57.135Z,31.60
2023-06-19T16:49:24.118Z,31.50
2023-06-19T16:51:51.109Z,31.50
2023-06-19T16:54:18.149Z,31.50
2023-06-19T16:56:45.031Z,31.50
2023-06-19T16:59:11.966Z,31.50
2023-06-19T17:01:39.015Z,31.50
2023-06-19T17:04:05.914Z,31.50
2023-06-19T17:06:32.805Z,31.50
2023-06-19T17:08:59.706Z,31.50
2023-06-19T17:11:28.048Z,31.50
2023-06-19T17:13:55.041Z,31.50
2023-06-19T17:16:22.311Z,31.40
2023-06-19T17:18:49.358Z,31.40
2023-06-19T17:21:16.259Z,31.40
2023-06-19T17:23:43.709Z,31.30
2023-06-19T17:26:10.610Z,31.10
2023-06-19T17:28:37.886Z,31.10
2023-06-19T17:31:05.000Z,31.00
2023-06-19T17:33:31.898Z,30.80
2023-06-19T17:35:59.882Z,30.60
2023-06-19T17:38:26.939Z,30.40
2023-06-19T17:40:54.092Z,30.20
2023-06-19T17:43:20.950Z,30.00
2023-06-19T17:45:47.841Z,29.90
2023-06-19T17:48:14.699Z,29.70
2023-06-19T17:50:41.670Z,29.60
2023-06-19T17:53:08.774Z,29.50
2023-06-19T17:55:35.629Z,29.40
2023-06-19T17:58:02.528Z,29.30
2023-06-19T18:00:29.937Z,29.30
2023-06-19T18:02:57.002Z,29.30
2023-06-19T18:05:23.917Z,29.10
2023-06-19T18:07:50.810Z,29.10
2023-06-19T18:10:17.645Z,29.00
2023-06-19T18:12:44.574Z,28.90
2023-06-19T18:15:11.650Z,28.90
2023-06-19T18:17:38.606Z,28.80
2023-06-19T18:20:06.395Z,28.70
2023-06-19T18:22:33.274Z,28.60
2023-06-19T18:25:00.159Z,28.40
2023-06-19T18:27:27.637Z,28.30
2023-06-19T18:29:54.572Z,28.30
2023-06-19T18:32:21.467Z,28.20
2023-06-19T18:34:48.334Z,28.10
2023-06-19T18:37:15.259Z,28.00
2023-06-19T18:39:42.158Z,28.00
2023-06-19T18:42:09.145Z,27.90
2023-06-19T18:44:36.165Z,27.80
2023-06-19T18:47:03.218Z,27.80
2023-06-19T18:49:32.272Z,27.70
2023-06-19T18:51:59.476Z,27.50
2023-06-19T18:54:26.327Z,27.50
2023-06-19T18:56:53.377Z,27.30
2023-06-19T18:59:20.993Z,27.30
2023-06-19T19:01:48.073Z,27.20
2023-06-19T19:04:14.982Z,27.10
2023-06-19T19:06:41.946Z,27.10
2023-06-19T19:09:09.897Z,26.90
2023-06-19T19:11:36.805Z,26.80
2023-06-19T19:14:03.765Z,26.80
2023-06-19T19:16:31.598Z,26.70
2023-06-19T19:18:58.489Z,26.60
2023-06-19T19:21:26.177Z,26.60
2023-06-19T19:23:53.203Z,26.50
2023-06-19T19:26:20.112Z,26.40
2023-06-19T19:28:46.970Z,26.40
2023-06-19T19:31:13.826Z,26.30
2023-06-19T19:33:40.785Z,26.30
2023-06-19T19:36:08.658Z,26.10
2023-06-19T19:38:35.585Z,26.10
2023-06-19T19:41:02.432Z,26.10
2023-06-19T19:43:29.317Z,26.10
2023-06-19T19:45:56.328Z,26.00
2023-06-19T19:48:23.296Z,26.00
2023-06-19T19:50:50.188Z,25.90
2023-06-19T19:53:17.029Z,25.90
2023-06-19T19:55:43.882Z,25.80
2023-06-19T19:58:10.721Z,25.80
2023-06-19T20:00:37.619Z,25.80
2023-06-19T20:03:04.609Z,25.80
2023-06-19T20:05:31.568Z,25.70
2023-06-19T20:07:58.473Z,25.70
2023-06-19T20:10:25.635Z,25.60
2023-06-19T20:12:52.712Z,25.60
2023-06-19T20:15:19.688Z,25.60
2023-06-19T20:17:46.591Z,25.50
2023-06-19T20:20:13.513Z,25.50
2023-06-19T20:22:40.409Z,25.50
2023-06-19T20:25:07.536Z,25.40
2023-06-19T20:27:34.366Z,25.40
2023-06-19T20:30:01.221Z,25.40
2023-06-19T20:32:28.114Z,25.40
2023-06-19T20:34:54.999Z,25.30
2023-06-19T20:37:21.895Z,25.30
2023-06-19T20:39:48.879Z,25.20
2023-06-19T20:42:17.723Z,25.20
2023-06-19T20:44:44.604Z,25.20
2023-06-19T20:47:11.445Z,25.20
2023-06-19T20:49:38.335Z,25.20
2023-06-19T20:52:05.388Z,25.20
2023-06-19T20:54:32.424Z,25.20
2023-06-19T20:56:59.352Z,25.10
2023-06-19T20:59:26.186Z,25.10
2023-06-19T21:01:57.412Z,25.10
2023-06-19T21:04:25.464Z,25.00
2023-06-19T21:06:52.386Z,25.00
2023-06-19T21:09:19.562Z,25.00
2023-06-19T21:11:46.852Z,25.00
2023-06-19T21:14:14.464Z,24.90
2023-06-19T21:16:42.359Z,24.90
2023-06-19T21:19:09.266Z,24.80
2023-06-19T21:21:36.151Z,24.80
2023-06-19T21:24:03.133Z,24.80
2023-06-19T21:26:30.095Z,24.70
2023-06-19T21:28:56.928Z,24.70
2023-06-19T21:31:23.877Z,24.70
2023-06-19T21:33:50.893Z,24.70
2023-06-19T21:36:17.763Z,24.60
2023-06-19T21:38:44.610Z,24.60
2023-06-19T21:41:11.510Z,24.60
2023-06-19T21:43:38.400Z,24.60
2023-06-19T21:46:05.251Z,24.60
2023-06-19T21:48:32.177Z,24.60
2023-06-19T21:50:59.025Z,24.60
2023-06-19T21:53:26.558Z,24.60
2023-06-19T21:55:53.431Z,24.60
2023-06-19T21:58:23.014Z,24.70
2023-06-19T22:00:49.922Z,24.70
2023-06-19T22:03:16.945Z,24.70
2023-06-19T22:05:43.893Z,24.70
2023-06-19T22:08:10.708Z,24.80
2023-06-19T22:10:37.565Z,24.80
2023-06-19T22:13:04.488Z,24.80
2023-06-19T22:15:32.145Z,24.80
2023-06-19T22:18:01.802Z,24.70
2023-06-19T22:20:28.752Z,24.70
2023-06-19T22:22:55.652Z,24.70
2023-06-19T22:25:22.622Z,24.70
2023-06-19T22:27:55.227Z,24.70
2023-06-19T22:30:22.822Z,24.60
2023-06-19T22:32:49.997Z,24.70
2023-06-19T22:35:16.878Z,24.60
2023-06-19T22:37:44.406Z,24.60
2023-06-19T22:40:11.555Z,24.60
2023-06-19T22:42:39.262Z,24.60
2023-06-19T22:45:09.684Z,24.60
2023-06-19T22:47:39.952Z,24.60
2023-06-19T22:50:11.270Z,24.50
2023-06-19T22:52:38.236Z,24.50
2023-06-19T22:55:05.675Z,24.50
2023-06-19T22:57:35.753Z,24.50
2023-06-19T23:00:07.075Z,24.40
2023-06-19T23:02:33.997Z,24.40
2023-06-19T23:05:00.914Z,24.30
2023-06-19T23:07:28.910Z,24.30
2023-06-19T23:09:57.431Z,24.30
2023-06-19T23:12:24.246Z,24.30
2023-06-19T23:14:51.088Z,24.30
2023-06-19T23:17:17.951Z,24.20
2023-06-19T23:19:44.754Z,24.20
2023-06-19T23:22:11.611Z,24.20
2023-06-19T23:24:41.358Z,24.10
2023-06-19T23:27:09.325Z,24.10
2023-06-19T23:29:37.216Z,24.00
2023-06-19T23:32:04.627Z,24.10
2023-06-19T23:34:33.304Z,24.00
2023-06-19T23:37:00.452Z,24.00
2023-06-19T23:39:27.417Z,24.00
2023-06-19T23:41:54.302Z,24.00
2023-06-19T23:44:21.133Z,24.00
2023-06-19T23:46:48.037Z,23.90
2023-06-19T23:49:15.021Z,23.90
2023-06-19T23:51:43.082Z,23.90
2023-06-19T23:54:09.929Z,23.90
2023-06-19T23:56:36.891Z,23.90
2023-06-19T23:59:03.731Z,23.80
